sensor_id;sensor_type;location;lat;lon;timestamp;pressure;altitude;pressure_sealevel;temperature;humidity
56831;BME280;42713;42.676;23.352;2023-04-10T00:01:48;94890.94;;;8.94;60.59
56831;BME280;42713;42.676;23.352;2023-04-10T00:04:14;94896.41;;;8.92;60.56
56831;BME280;42713;42.676;23.352;2023-04-10T00:06:39;94889.03;;;8.89;60.50
56831;BME280;42713;42.676;23.352;2023-04-10T00:09:06;94885.06;;;8.86;60.57
56831;BME280;42713;42.676;23.352;2023-04-10T00:11:32;94885.72;;;8.82;60.30
56831;BME280;42713;42.676;23.352;2023-04-10T00:13:58;94881.09;;;8.84;60.12
56831;BME280;42713;42.676;23.352;2023-04-10T00:16:23;94885.50;;;8.83;60.15
56831;BME280;42713;42.676;23.352;2023-04-10T00:18:49;94878.69;;;8.82;59.60
56831;BME280;42713;42.676;23.352;2023-04-10T00:21:14;94881.53;;;8.81;59.23
56831;BME280;42713;42.676;23.352;2023-04-10T00:23:40;94874.94;;;8.78;57.82
56831;BME280;42713;42.676;23.352;2023-04-10T00:26:05;94877.56;;;8.78;57.18
56831;BME280;42713;42.676;23.352;2023-04-10T00:28:31;94874.13;;;8.78;56.08
56831;BME280;42713;42.676;23.352;2023-04-10T00:30:56;94874.03;;;8.72;53.49
56831;BME280;42713;42.676;23.352;2023-04-10T00:33:22;94866.66;;;8.69;52.39
56831;BME280;42713;42.676;23.352;2023-04-10T00:35:47;94865.63;;;8.70;51.99
56831;BME280;42713;42.676;23.352;2023-04-10T00:38:13;94870.06;;;8.70;51.72
56831;BME280;42713;42.676;23.352;2023-04-10T00:40:38;94863.25;;;8.69;51.26
56831;BME280;42713;42.676;23.352;2023-04-10T00:43:03;94868.69;;;8.67;51.43
56831;BME280;42713;42.676;23.352;2023-04-10T00:45:29;94872.09;;;8.68;51.33
56831;BME280;42713;42.676;23.352;2023-04-10T00:47:56;94872.69;;;8.70;51.57
56831;BME280;42713;42.676;23.352;2023-04-10T00:50:21;94869.50;;;8.68;51.75
56831;BME280;42713;42.676;23.352;2023-04-10T00:52:48;94865.06;;;8.68;51.48
56831;BME280;42713;42.676;23.352;2023-04-10T00:55:14;94865.88;;;8.69;51.91
56831;BME280;42713;42.676;23.352;2023-04-10T00:57:44;94864.28;;;8.68;51.83
56831;BME280;42713;42.676;23.352;2023-04-10T01:00:14;94854.06;;;8.66;52.41
56831;BME280;42713;42.676;23.352;2023-04-10T01:02:40;94856.78;;;8.71;53.63
56831;BME280;42713;42.676;23.352;2023-04-10T01:05:06;94859.38;;;8.71;54.38
56831;BME280;42713;42.676;23.352;2023-04-10T01:10:19;94844.28;;;8.74;57.37
56831;BME280;42713;42.676;23.352;2023-04-10T01:13:01;94843.47;;;8.73;58.05
56831;BME280;42713;42.676;23.352;2023-04-10T01:15:39;94848.38;;;8.69;58.97
56831;BME280;42713;42.676;23.352;2023-04-10T01:20:42;94847.09;;;8.72;60.07
56831;BME280;42713;42.676;23.352;2023-04-10T01:26:02;94844.72;;;8.70;61.05
56831;BME280;42713;42.676;23.352;2023-04-10T01:28:52;94840.53;;;8.69;61.67
56831;BME280;42713;42.676;23.352;2023-04-10T01:31:45;94838.94;;;8.68;61.96
56831;BME280;42713;42.676;23.352;2023-04-10T01:34:19;94849.63;;;8.67;62.15
56831;BME280;42713;42.676;23.352;2023-04-10T01:36:49;94843.16;;;8.69;62.35
56831;BME280;42713;42.676;23.352;2023-04-10T01:39:19;94834.28;;;8.70;62.52
56831;BME280;42713;42.676;23.352;2023-04-10T01:41:47;94838.72;;;8.70;62.48
56831;BME280;42713;42.676;23.352;2023-04-10T01:44:17;94843.16;;;8.69;62.28
56831;BME280;42713;42.676;23.352;2023-04-10T01:46:45;94847.78;;;8.67;62.49
56831;BME280;42713;42.676;23.352;2023-04-10T01:49:12;94840.44;;;8.64;62.52
56831;BME280;42713;42.676;23.352;2023-04-10T01:51:38;94849.63;;;8.67;61.92
56831;BME280;42713;42.676;23.352;2023-04-10T01:54:04;94847.00;;;8.67;62.07
56831;BME280;42713;42.676;23.352;2023-04-10T01:56:31;94846.22;;;8.66;62.28
56831;BME280;42713;42.676;23.352;2023-04-10T01:58:58;94848.84;;;8.66;62.61
56831;BME280;42713;42.676;23.352;2023-04-10T02:01:24;94852.22;;;8.67;62.66
56831;BME280;42713;42.676;23.352;2023-04-10T02:03:49;94851.44;;;8.66;62.73
56831;BME280;42713;42.676;23.352;2023-04-10T02:09:27;94843.03;;;8.64;62.72
56831;BME280;42713;42.676;23.352;2023-04-10T02:12:04;94838.41;;;8.66;62.76
56831;BME280;42713;42.676;23.352;2023-04-10T02:14:31;94830.75;;;8.65;62.33
56831;BME280;42713;42.676;23.352;2023-04-10T02:16:59;94827.59;;;8.63;61.86
56831;BME280;42713;42.676;23.352;2023-04-10T02:19:26;94828.06;;;8.60;61.81
56831;BME280;42713;42.676;23.352;2023-04-10T02:21:53;94816.59;;;8.61;61.40
56831;BME280;42713;42.676;23.352;2023-04-10T02:24:19;94815.56;;;8.62;60.97
56831;BME280;42713;42.676;23.352;2023-04-10T02:26:50;94818.72;;;8.64;60.50
56831;BME280;42713;42.676;23.352;2023-04-10T02:29:16;94803.88;;;8.64;60.28
56831;BME280;42713;42.676;23.352;2023-04-10T02:31:43;94816.34;;;8.62;59.93
56831;BME280;42713;42.676;23.352;2023-04-10T02:34:09;94809.53;;;8.61;59.43
56831;BME280;42713;42.676;23.352;2023-04-10T02:36:39;94805.91;;;8.62;58.85
56831;BME280;42713;42.676;23.352;2023-04-10T02:39:05;94805.34;;;8.60;58.91
56831;BME280;42713;42.676;23.352;2023-04-10T02:41:31;94805.13;;;8.62;59.12
56831;BME280;42713;42.676;23.352;2023-04-10T02:43:56;94793.31;;;8.59;58.72
56831;BME280;42713;42.676;23.352;2023-04-10T02:46:22;94796.72;;;8.60;58.46
56831;BME280;42713;42.676;23.352;2023-04-10T02:48:47;94793.97;;;8.54;58.21
56831;BME280;42713;42.676;23.352;2023-04-10T02:51:13;94800.22;;;8.53;58.47
56831;BME280;42713;42.676;23.352;2023-04-10T02:53:39;94791.28;;;8.49;58.88
56831;BME280;42713;42.676;23.352;2023-04-10T02:56:05;94798.53;;;8.47;59.17
56831;BME280;42713;42.676;23.352;2023-04-10T02:58:32;94793.72;;;8.44;59.59
56831;BME280;42713;42.676;23.352;2023-04-10T03:00:58;94786.13;;;8.43;60.24
56831;BME280;42713;42.676;23.352;2023-04-10T03:03:24;94791.34;;;8.43;60.00
56831;BME280;42713;42.676;23.352;2023-04-10T03:05:49;94793.72;;;8.44;60.42
56831;BME280;42713;42.676;23.352;2023-04-10T03:08:15;94783.19;;;8.39;59.86
56831;BME280;42713;42.676;23.352;2023-04-10T03:10:45;94793.84;;;8.37;60.04
56831;BME280;42713;42.676;23.352;2023-04-10T03:13:12;94793.84;;;8.37;60.58
56831;BME280;42713;42.676;23.352;2023-04-10T03:15:38;94792.72;;;8.33;60.54
56831;BME280;42713;42.676;23.352;2023-04-10T03:18:04;94792.13;;;8.31;60.92
56831;BME280;42713;42.676;23.352;2023-04-10T03:20:31;94789.19;;;8.28;60.42
56831;BME280;42713;42.676;23.352;2023-04-10T03:22:57;94793.38;;;8.29;60.57
56831;BME280;42713;42.676;23.352;2023-04-10T03:25:23;94793.81;;;8.25;60.73
56831;BME280;42713;42.676;23.352;2023-04-10T03:27:49;94794.50;;;8.21;60.91
56831;BME280;42713;42.676;23.352;2023-04-10T03:30:14;94800.53;;;8.21;61.09
56831;BME280;42713;42.676;23.352;2023-04-10T03:32:41;94797.91;;;8.21;60.99
56831;BME280;42713;42.676;23.352;2023-04-10T03:35:08;94800.41;;;8.16;61.34
56831;BME280;42713;42.676;23.352;2023-04-10T03:37:35;94801.31;;;8.10;61.45
56831;BME280;42713;42.676;23.352;2023-04-10T03:40:06;94798.34;;;8.06;61.14
56831;BME280;42713;42.676;23.352;2023-04-10T03:42:31;94800.38;;;8.04;61.65
56831;BME280;42713;42.676;23.352;2023-04-10T03:44:57;94802.31;;;7.97;62.04
56831;BME280;42713;42.676;23.352;2023-04-10T03:47:22;94808.72;;;7.94;62.66
56831;BME280;42713;42.676;23.352;2023-04-10T03:49:48;94808.41;;;7.91;62.61
56831;BME280;42713;42.676;23.352;2023-04-10T03:52:13;94808.28;;;7.86;62.71
56831;BME280;42713;42.676;23.352;2023-04-10T03:54:39;94813.16;;;7.82;62.91
56831;BME280;42713;42.676;23.352;2023-04-10T03:57:04;94816.19;;;7.79;63.44
56831;BME280;42713;42.676;23.352;2023-04-10T03:59:30;94816.84;;;7.74;63.21
56831;BME280;42713;42.676;23.352;2023-04-10T04:01:55;94818.88;;;7.72;63.45
56831;BME280;42713;42.676;23.352;2023-04-10T04:04:21;94823.97;;;7.67;64.12
56831;BME280;42713;42.676;23.352;2023-04-10T04:06:47;94813.56;;;7.67;64.09
56831;BME280;42713;42.676;23.352;2023-04-10T04:09:13;94821.81;;;7.64;64.56
56831;BME280;42713;42.676;23.352;2023-04-10T04:11:38;94825.19;;;7.64;64.72
56831;BME280;42713;42.676;23.352;2023-04-10T04:14:04;94824.19;;;7.66;64.36
56831;BME280;42713;42.676;23.352;2023-04-10T04:16:29;94832.00;;;7.66;64.46
56831;BME280;42713;42.676;23.352;2023-04-10T04:18:55;94829.38;;;7.66;64.87
56831;BME280;42713;42.676;23.352;2023-04-10T04:21:20;94830.41;;;7.64;64.70
56831;BME280;42713;42.676;23.352;2023-04-10T04:23:46;94828.59;;;7.65;64.68
56831;BME280;42713;42.676;23.352;2023-04-10T04:26:11;94826.59;;;7.67;64.54
56831;BME280;42713;42.676;23.352;2023-04-10T04:28:37;94828.97;;;7.69;65.15
56831;BME280;42713;42.676;23.352;2023-04-10T04:31:02;94829.53;;;7.71;64.46
56831;BME280;42713;42.676;23.352;2023-04-10T04:33:28;94830.91;;;7.73;64.90
56831;BME280;42713;42.676;23.352;2023-04-10T04:35:54;94832.50;;;7.74;64.43
56831;BME280;42713;42.676;23.352;2023-04-10T04:38:20;94831.06;;;7.78;64.78
56831;BME280;42713;42.676;23.352;2023-04-10T04:40:45;94841.25;;;7.80;65.25
56831;BME280;42713;42.676;23.352;2023-04-10T04:43:20;94835.81;;;7.82;65.13
56831;BME280;42713;42.676;23.352;2023-04-10T04:45:45;94834.34;;;7.86;65.24
56831;BME280;42713;42.676;23.352;2023-04-10T04:48:11;94832.53;;;7.86;65.04
56831;BME280;42713;42.676;23.352;2023-04-10T04:50:39;94843.53;;;7.88;64.82
56831;BME280;42713;42.676;23.352;2023-04-10T04:53:04;94839.69;;;7.91;64.39
56831;BME280;42713;42.676;23.352;2023-04-10T04:55:30;94844.13;;;7.90;64.78
56831;BME280;42713;42.676;23.352;2023-04-10T04:57:56;94844.69;;;7.92;64.96
56831;BME280;42713;42.676;23.352;2023-04-10T05:00:21;94853.06;;;7.94;65.12
56831;BME280;42713;42.676;23.352;2023-04-10T05:02:47;94846.63;;;7.97;65.45
56831;BME280;42713;42.676;23.352;2023-04-10T05:05:12;94852.22;;;8.01;65.00
56831;BME280;42713;42.676;23.352;2023-04-10T05:07:37;94864.00;;;8.03;65.64
56831;BME280;42713;42.676;23.352;2023-04-10T05:10:03;94851.31;;;8.07;65.17
56831;BME280;42713;42.676;23.352;2023-04-10T05:12:29;94849.28;;;8.09;65.05
56831;BME280;42713;42.676;23.352;2023-04-10T05:14:54;94855.28;;;8.09;65.10
56831;BME280;42713;42.676;23.352;2023-04-10T05:17:20;94850.19;;;8.15;65.47
56831;BME280;42713;42.676;23.352;2023-04-10T05:19:45;94850.78;;;8.17;65.23
56831;BME280;42713;42.676;23.352;2023-04-10T05:22:11;94842.72;;;8.18;64.91
56831;BME280;42713;42.676;23.352;2023-04-10T05:24:36;94845.31;;;8.18;64.88
56831;BME280;42713;42.676;23.352;2023-04-10T05:27:02;94850.44;;;8.25;64.47
56831;BME280;42713;42.676;23.352;2023-04-10T05:29:27;94846.81;;;8.26;64.77
56831;BME280;42713;42.676;23.352;2023-04-10T05:31:52;94852.38;;;8.30;64.04
56831;BME280;42713;42.676;23.352;2023-04-10T05:34:18;94846.16;;;8.31;63.67
56831;BME280;42713;42.676;23.352;2023-04-10T05:36:47;94846.25;;;8.36;62.94
56831;BME280;42713;42.676;23.352;2023-04-10T05:39:15;94845.00;;;8.38;61.75
56831;BME280;42713;42.676;23.352;2023-04-10T05:41:40;94858.19;;;8.44;61.13
56831;BME280;42713;42.676;23.352;2023-04-10T05:44:06;94855.59;;;8.44;61.17
56831;BME280;42713;42.676;23.352;2023-04-10T05:46:31;94850.50;;;8.49;61.07
56831;BME280;42713;42.676;23.352;2023-04-10T05:48:57;94858.13;;;8.50;60.90
56831;BME280;42713;42.676;23.352;2023-04-10T05:51:22;94849.28;;;8.51;60.36
56831;BME280;42713;42.676;23.352;2023-04-10T05:53:49;94850.19;;;8.57;60.47
56831;BME280;42713;42.676;23.352;2023-04-10T05:56:14;94856.88;;;8.65;60.11
56831;BME280;42713;42.676;23.352;2023-04-10T05:58:40;94857.78;;;8.70;60.11
56831;BME280;42713;42.676;23.352;2023-04-10T06:01:05;94861.75;;;8.73;59.43
56831;BME280;42713;42.676;23.352;2023-04-10T06:03:31;94856.09;;;8.76;59.13
56831;BME280;42713;42.676;23.352;2023-04-10T06:05:59;94859.63;;;8.82;59.59
56831;BME280;42713;42.676;23.352;2023-04-10T06:08:27;94850.75;;;8.83;59.01
56831;BME280;42713;42.676;23.352;2023-04-10T06:10:53;94857.69;;;8.89;59.24
56831;BME280;42713;42.676;23.352;2023-04-10T06:13:18;94859.28;;;8.90;59.41
56831;BME280;42713;42.676;23.352;2023-04-10T06:15:44;94858.81;;;8.93;59.39
56831;BME280;42713;42.676;23.352;2023-04-10T06:18:10;94858.72;;;9.00;59.91
56831;BME280;42713;42.676;23.352;2023-04-10T06:20:35;94850.97;;;9.05;59.88
56831;BME280;42713;42.676;23.352;2023-04-10T06:23:01;94854.50;;;9.11;59.52
56831;BME280;42713;42.676;23.352;2023-04-10T06:25:28;94852.44;;;9.13;59.13
56831;BME280;42713;42.676;23.352;2023-04-10T06:27:53;94848.00;;;9.13;59.04
56831;BME280;42713;42.676;23.352;2023-04-10T06:30:19;94847.88;;;9.20;59.21
56831;BME280;42713;42.676;23.352;2023-04-10T06:32:44;94846.06;;;9.21;58.60
56831;BME280;42713;42.676;23.352;2023-04-10T06:35:10;94839.59;;;9.23;58.29
56831;BME280;42713;42.676;23.352;2023-04-10T06:37:36;94848.09;;;9.30;58.30
56831;BME280;42713;42.676;23.352;2023-04-10T06:40:03;94856.72;;;9.31;58.10
56831;BME280;42713;42.676;23.352;2023-04-10T06:42:29;94851.84;;;9.34;58.29
56831;BME280;42713;42.676;23.352;2023-04-10T06:44:55;94850.94;;;9.29;57.79
56831;BME280;42713;42.676;23.352;2023-04-10T06:47:20;94856.38;;;9.27;57.80
56831;BME280;42713;42.676;23.352;2023-04-10T06:49:46;94860.13;;;9.31;58.16
56831;BME280;42713;42.676;23.352;2023-04-10T06:52:12;94862.06;;;9.36;58.38
56831;BME280;42713;42.676;23.352;2023-04-10T06:54:37;94863.97;;;9.41;58.17
56831;BME280;42713;42.676;23.352;2023-04-10T06:57:03;94866.16;;;9.44;57.55
56831;BME280;42713;42.676;23.352;2023-04-10T06:59:29;94866.81;;;9.51;57.51
56831;BME280;42713;42.676;23.352;2023-04-10T07:01:55;94868.97;;;9.54;57.15
56831;BME280;42713;42.676;23.352;2023-04-10T07:04:22;94860.63;;;9.57;57.07
56831;BME280;42713;42.676;23.352;2023-04-10T07:06:47;94871.22;;;9.62;57.02
56831;BME280;42713;42.676;23.352;2023-04-10T07:09:13;94866.56;;;9.64;56.53
56831;BME280;42713;42.676;23.352;2023-04-10T07:11:39;94861.84;;;9.66;56.87
56831;BME280;42713;42.676;23.352;2023-04-10T07:14:04;94864.59;;;9.72;57.28
56831;BME280;42713;42.676;23.352;2023-04-10T07:16:30;94864.91;;;9.75;56.76
56831;BME280;42713;42.676;23.352;2023-04-10T07:18:55;94856.25;;;9.75;56.21
56831;BME280;42713;42.676;23.352;2023-04-10T07:21:20;94865.47;;;9.77;56.44
56831;BME280;42713;42.676;23.352;2023-04-10T07:23:48;94867.84;;;9.79;56.38
56831;BME280;42713;42.676;23.352;2023-04-10T07:26:13;94862.38;;;9.80;56.74
56831;BME280;42713;42.676;23.352;2023-04-10T07:28:40;94862.63;;;9.79;56.73
56831;BME280;42713;42.676;23.352;2023-04-10T07:31:06;94871.28;;;9.79;56.55
56831;BME280;42713;42.676;23.352;2023-04-10T07:33:32;94865.81;;;9.81;56.75
56831;BME280;42713;42.676;23.352;2023-04-10T07:35:57;94864.53;;;9.84;56.42
56831;BME280;42713;42.676;23.352;2023-04-10T07:38:23;94864.84;;;9.87;56.11
56831;BME280;42713;42.676;23.352;2023-04-10T07:40:55;94870.97;;;9.93;56.51
56831;BME280;42713;42.676;23.352;2023-04-10T07:43:20;94871.88;;;9.99;56.15
56831;BME280;42713;42.676;23.352;2023-04-10T07:45:46;94874.34;;;10.05;55.78
56831;BME280;42713;42.676;23.352;2023-04-10T07:48:11;94866.91;;;10.14;55.94
56831;BME280;42713;42.676;23.352;2023-04-10T07:50:37;94864.94;;;10.21;55.87
56831;BME280;42713;42.676;23.352;2023-04-10T07:53:03;94862.72;;;10.30;55.24
56831;BME280;42713;42.676;23.352;2023-04-10T07:55:37;94863.72;;;10.41;55.38
56831;BME280;42713;42.676;23.352;2023-04-10T07:58:03;94864.91;;;10.50;55.01
56831;BME280;42713;42.676;23.352;2023-04-10T08:00:28;94865.47;;;10.52;54.38
56831;BME280;42713;42.676;23.352;2023-04-10T08:02:54;94868.72;;;10.59;53.98
56831;BME280;42713;42.676;23.352;2023-04-10T08:05:19;94860.72;;;10.66;53.44
56831;BME280;42713;42.676;23.352;2023-04-10T08:07:45;94856.88;;;10.74;53.50
56831;BME280;42713;42.676;23.352;2023-04-10T08:10:11;94866.03;;;10.71;53.38
56831;BME280;42713;42.676;23.352;2023-04-10T08:12:36;94869.50;;;10.77;53.70
56831;BME280;42713;42.676;23.352;2023-04-10T08:15:02;94868.47;;;10.78;53.15
56831;BME280;42713;42.676;23.352;2023-04-10T08:17:28;94869.03;;;10.80;53.53
56831;BME280;42713;42.676;23.352;2023-04-10T08:19:53;94860.88;;;10.77;53.81
56831;BME280;42713;42.676;23.352;2023-04-10T08:22:19;94864.38;;;10.82;54.35
56831;BME280;42713;42.676;23.352;2023-04-10T08:24:44;94855.22;;;10.85;53.91
56831;BME280;42713;42.676;23.352;2023-04-10T08:27:09;94863.16;;;10.90;53.70
56831;BME280;42713;42.676;23.352;2023-04-10T08:29:35;94857.75;;;10.97;53.74
56831;BME280;42713;42.676;23.352;2023-04-10T08:32:01;94857.31;;;11.05;53.62
56831;BME280;42713;42.676;23.352;2023-04-10T08:34:26;94861.63;;;11.11;53.21
56831;BME280;42713;42.676;23.352;2023-04-10T08:36:53;94864.00;;;11.13;53.31
56831;BME280;42713;42.676;23.352;2023-04-10T08:39:18;94858.03;;;11.17;53.24
56831;BME280;42713;42.676;23.352;2023-04-10T08:41:43;94859.84;;;11.17;52.71
56831;BME280;42713;42.676;23.352;2023-04-10T08:44:09;94869.28;;;11.18;53.07
56831;BME280;42713;42.676;23.352;2023-04-10T08:46:35;94854.66;;;11.22;53.33
56831;BME280;42713;42.676;23.352;2023-04-10T08:49:09;94856.31;;;11.28;52.59
56831;BME280;42713;42.676;23.352;2023-04-10T08:51:38;94856.63;;;11.32;52.03
56831;BME280;42713;42.676;23.352;2023-04-10T08:54:09;94851.72;;;11.35;52.29
56831;BME280;42713;42.676;23.352;2023-04-10T08:56:40;94852.00;;;11.39;52.97
56831;BME280;42713;42.676;23.352;2023-04-10T08:59:07;94854.69;;;11.44;52.56
56831;BME280;42713;42.676;23.352;2023-04-10T09:01:33;94841.56;;;11.44;51.59
56831;BME280;42713;42.676;23.352;2023-04-10T09:04:00;94850.47;;;11.43;52.24
56831;BME280;42713;42.676;23.352;2023-04-10T09:06:26;94850.72;;;11.42;52.47
56831;BME280;42713;42.676;23.352;2023-04-10T09:08:52;94847.38;;;11.46;52.33
56831;BME280;42713;42.676;23.352;2023-04-10T09:11:17;94836.09;;;11.46;51.08
56831;BME280;42713;42.676;23.352;2023-04-10T09:13:43;94842.06;;;11.41;50.30
56831;BME280;42713;42.676;23.352;2023-04-10T09:16:10;94840.47;;;11.40;49.02
56831;BME280;42713;42.676;23.352;2023-04-10T09:21:14;94843.53;;;11.54;48.77
56831;BME280;42713;42.676;23.352;2023-04-10T09:23:41;94833.78;;;11.49;49.01
56831;BME280;42713;42.676;23.352;2023-04-10T09:29:03;94836.19;;;11.56;49.04
56831;BME280;42713;42.676;23.352;2023-04-10T09:31:37;94833.88;;;11.60;48.63
56831;BME280;42713;42.676;23.352;2023-04-10T09:34:14;94834.41;;;11.62;49.14
56831;BME280;42713;42.676;23.352;2023-04-10T09:36:42;94833.16;;;11.64;48.72
56831;BME280;42713;42.676;23.352;2023-04-10T09:39:09;94828.13;;;11.63;48.40
56831;BME280;42713;42.676;23.352;2023-04-10T09:41:52;94831.88;;;11.67;48.67
56831;BME280;42713;42.676;23.352;2023-04-10T09:44:35;94831.31;;;11.65;48.68
56831;BME280;42713;42.676;23.352;2023-04-10T09:49:46;94823.91;;;11.62;48.05
56831;BME280;42713;42.676;23.352;2023-04-10T09:52:21;94824.47;;;11.64;47.66
56831;BME280;42713;42.676;23.352;2023-04-10T09:54:48;94826.13;;;11.70;51.87
56831;BME280;42713;42.676;23.352;2023-04-10T09:57:16;94819.28;;;11.69;47.63
56831;BME280;42713;42.676;23.352;2023-04-10T09:59:49;94826.66;;;11.72;48.08
56831;BME280;42713;42.676;23.352;2023-04-10T10:02:17;94825.13;;;11.76;48.13
56831;BME280;42713;42.676;23.352;2023-04-10T10:04:43;94822.06;;;11.84;48.20
56831;BME280;42713;42.676;23.352;2023-04-10T10:07:10;94812.97;;;11.92;47.31
56831;BME280;42713;42.676;23.352;2023-04-10T10:09:36;94809.91;;;12.01;51.07
56831;BME280;42713;42.676;23.352;2023-04-10T10:12:05;94816.03;;;12.11;47.93
56831;BME280;42713;42.676;23.352;2023-04-10T10:14:46;94809.81;;;12.18;48.36
56831;BME280;42713;42.676;23.352;2023-04-10T10:17:17;94812.94;;;12.14;49.53
56831;BME280;42713;42.676;23.352;2023-04-10T10:19:52;94796.97;;;12.21;48.59
56831;BME280;42713;42.676;23.352;2023-04-10T10:22:21;94793.34;;;12.27;50.28
56831;BME280;42713;42.676;23.352;2023-04-10T10:24:49;94787.31;;;12.27;49.41
56831;BME280;42713;42.676;23.352;2023-04-10T10:27:21;94785.75;;;12.31;50.68
56831;BME280;42713;42.676;23.352;2023-04-10T10:29:48;94787.84;;;12.29;47.98
56831;BME280;42713;42.676;23.352;2023-04-10T10:32:16;94789.09;;;12.21;50.00
56831;BME280;42713;42.676;23.352;2023-04-10T10:34:43;94781.41;;;12.14;49.16
56831;BME280;42713;42.676;23.352;2023-04-10T10:37:08;94785.38;;;12.17;51.49
56831;BME280;42713;42.676;23.352;2023-04-10T10:39:52;94777.03;;;12.25;50.62
56831;BME280;42713;42.676;23.352;2023-04-10T10:42:26;94778.66;;;12.32;49.84
56831;BME280;42713;42.676;23.352;2023-04-10T10:47:33;94771.06;;;12.35;50.73
56831;BME280;42713;42.676;23.352;2023-04-10T10:50:04;94760.06;;;12.38;50.94
56831;BME280;42713;42.676;23.352;2023-04-10T10:52:39;94764.53;;;12.38;50.78
56831;BME280;42713;42.676;23.352;2023-04-10T11:00:17;94755.78;;;12.27;48.21
56831;BME280;42713;42.676;23.352;2023-04-10T11:02:43;94755.03;;;12.32;48.00
56831;BME280;42713;42.676;23.352;2023-04-10T11:05:08;94750.63;;;12.42;47.54
56831;BME280;42713;42.676;23.352;2023-04-10T11:11:02;94741.13;;;12.84;49.44
56831;BME280;42713;42.676;23.352;2023-04-10T11:16:02;94723.16;;;13.29;45.34
56831;BME280;42713;42.676;23.352;2023-04-10T11:31:58;94730.56;;;12.64;46.18
56831;BME280;42713;42.676;23.352;2023-04-10T11:34:24;94727.59;;;12.55;45.95
56831;BME280;42713;42.676;23.352;2023-04-10T11:36:52;94719.97;;;12.53;45.29
56831;BME280;42713;42.676;23.352;2023-04-10T11:39:18;94726.28;;;12.52;45.82
56831;BME280;42713;42.676;23.352;2023-04-10T11:41:49;94723.41;;;12.59;45.99
56831;BME280;42713;42.676;23.352;2023-04-10T11:44:25;94719.50;;;12.67;47.71
56831;BME280;42713;42.676;23.352;2023-04-10T11:46:51;94715.88;;;12.78;48.39
56831;BME280;42713;42.676;23.352;2023-04-10T11:49:21;94723.06;;;12.93;46.92
56831;BME280;42713;42.676;23.352;2023-04-10T11:51:47;94728.03;;;12.95;45.79
56831;BME280;42713;42.676;23.352;2023-04-10T11:54:18;94720.69;;;12.91;44.76
56831;BME280;42713;42.676;23.352;2023-04-10T11:57:05;94725.91;;;12.86;46.15
56831;BME280;42713;42.676;23.352;2023-04-10T11:59:35;94715.94;;;12.93;46.80
56831;BME280;42713;42.676;23.352;2023-04-10T12:02:05;94717.03;;;12.92;45.29
56831;BME280;42713;42.676;23.352;2023-04-10T12:04:32;94720.69;;;12.91;45.87
56831;BME280;42713;42.676;23.352;2023-04-10T12:06:58;94713.06;;;12.95;46.92
56831;BME280;42713;42.676;23.352;2023-04-10T12:09:26;94712.53;;;12.98;48.21
56831;BME280;42713;42.676;23.352;2023-04-10T12:11:57;94710.19;;;12.97;46.33
56831;BME280;42713;42.676;23.352;2023-04-10T12:14:35;94714.91;;;12.89;47.09
56831;BME280;42713;42.676;23.352;2023-04-10T12:17:03;94724.53;;;12.73;46.81
56831;BME280;42713;42.676;23.352;2023-04-10T12:19:29;94736.25;;;12.50;48.79
56831;BME280;42713;42.676;23.352;2023-04-10T12:21:55;94738.66;;;12.19;50.16
56831;BME280;42713;42.676;23.352;2023-04-10T12:24:46;94741.56;;;11.90;52.30
56831;BME280;42713;42.676;23.352;2023-04-10T12:27:16;94744.94;;;11.58;53.69
56831;BME280;42713;42.676;23.352;2023-04-10T12:29:43;94733.25;;;11.44;55.56
56831;BME280;42713;42.676;23.352;2023-04-10T12:32:09;94734.38;;;11.26;56.42
56831;BME280;42713;42.676;23.352;2023-04-10T12:34:35;94746.38;;;10.99;57.62
56831;BME280;42713;42.676;23.352;2023-04-10T12:37:01;94731.38;;;10.95;58.31
56831;BME280;42713;42.676;23.352;2023-04-10T12:39:27;94721.28;;;10.81;59.01
56831;BME280;42713;42.676;23.352;2023-04-10T12:42:19;94711.06;;;10.40;58.63
56831;BME280;42713;42.676;23.352;2023-04-10T12:44:56;94728.47;;;10.35;56.28
56831;BME280;42713;42.676;23.352;2023-04-10T12:47:24;94725.00;;;10.29;54.82
56831;BME280;42713;42.676;23.352;2023-04-10T12:50:07;94725.09;;;10.34;54.66
56831;BME280;42713;42.676;23.352;2023-04-10T12:52:34;94722.81;;;10.38;55.27
56831;BME280;42713;42.676;23.352;2023-04-10T12:57:39;94724.69;;;10.59;57.03
56831;BME280;42713;42.676;23.352;2023-04-10T13:00:07;94721.50;;;10.80;57.18
56831;BME280;42713;42.676;23.352;2023-04-10T13:02:37;94707.22;;;10.87;57.20
56831;BME280;42713;42.676;23.352;2023-04-10T13:05:04;94704.88;;;11.13;57.69
56831;BME280;42713;42.676;23.352;2023-04-10T13:07:32;94722.47;;;11.40;56.49
56831;BME280;42713;42.676;23.352;2023-04-10T13:09:58;94707.53;;;11.73;56.06
56831;BME280;42713;42.676;23.352;2023-04-10T13:12:24;94703.00;;;11.96;55.23
56831;BME280;42713;42.676;23.352;2023-04-10T13:14:51;94698.56;;;12.29;54.22
56831;BME280;42713;42.676;23.352;2023-04-10T13:17:22;94699.75;;;12.54;54.27
56831;BME280;42713;42.676;23.352;2023-04-10T13:19:48;94687.03;;;12.88;53.80
56831;BME280;42713;42.676;23.352;2023-04-10T13:22:13;94690.06;;;13.38;53.48
56831;BME280;42713;42.676;23.352;2023-04-10T13:24:39;94682.16;;;13.38;50.33
56831;BME280;42713;42.676;23.352;2023-04-10T13:27:04;94679.34;;;13.50;49.67
56831;BME280;42713;42.676;23.352;2023-04-10T13:29:30;94676.19;;;13.90;48.42
56831;BME280;42713;42.676;23.352;2023-04-10T13:31:56;94671.91;;;14.40;49.80
56831;BME280;42713;42.676;23.352;2023-04-10T13:34:24;94681.56;;;14.66;47.00
56831;BME280;42713;42.676;23.352;2023-04-10T13:36:50;94674.72;;;14.80;46.44
56831;BME280;42713;42.676;23.352;2023-04-10T13:39:15;94674.88;;;15.04;47.55
56831;BME280;42713;42.676;23.352;2023-04-10T13:41:42;94671.56;;;15.33;45.28
56831;BME280;42713;42.676;23.352;2023-04-10T13:44:08;94670.06;;;15.62;43.54
56831;BME280;42713;42.676;23.352;2023-04-10T13:46:33;94659.03;;;15.94;43.49